Time;durP1;ratioP1;P1;durP2;ratioP2;P2;SDS_P1;SDS_P2;PMS_P1;PMS_P2;Temp;Humidity;BMP_temperature;BMP_pressure;BME280_temperature;BME280_humidity;BME280_pressure;Samples;Min_cycle;Max_cycle;Signal;HPM_P1;HPM_P2
2022/08/21 00:00:04;;;;;;;;;;;19.70;99.90;;;;;;5060364;28;19916;-81
2022/08/21 00:02:30;;;;;;;;;;;19.60;99.90;;;;;;5060099;28;19916;-82
2022/08/21 00:04:55;;;;;;;;;;;19.50;99.90;;;;;;5060987;28;19920;-82
2022/08/21 00:07:21;;;;;;;;;;;19.60;99.90;;;;;;5060507;28;19951;-82
2022/08/21 00:09:47;;;;;;;;;;;19.50;99.90;;;;;;5062159;28;19916;-82
2022/08/21 00:12:12;;;;;;;;;;;19.40;99.90;;;;;;5073712;28;19928;-82
2022/08/21 00:14:38;;;;;;;;;;;19.40;99.90;;;;;;5060712;28;19923;-82
2022/08/21 00:17:04;;;;;;;;;;;19.30;99.90;;;;;;5062533;28;19944;-82
2022/08/21 00:19:30;;;;;;;;;;;19.30;99.90;;;;;;5061374;28;19975;-81
2022/08/21 00:21:55;;;;;;;;;;;19.30;99.90;;;;;;5063122;28;20383;-82
2022/08/21 00:24:22;;;;;;;;;;;19.30;99.90;;;;;;5064504;28;19916;-81
2022/08/21 00:26:48;;;;;;;;;;;19.30;99.90;;;;;;5063665;28;19924;-81
2022/08/21 00:29:13;;;;;;;;;;;19.30;99.90;;;;;;5064783;28;19917;-81
2022/08/21 00:31:39;;;;;;;;;;;19.30;99.90;;;;;;5064529;28;20232;-81
2022/08/21 00:34:05;;;;;;;;;;;19.20;99.90;;;;;;5059377;28;19916;-81
2022/08/21 00:36:30;;;;;;;;;;;19.20;99.90;;;;;;5063403;28;19999;-80
2022/08/21 00:38:56;;;;;;;;;;;19.20;99.90;;;;;;5061996;28;20097;-81
2022/08/21 00:41:23;;;;;;;;;;;19.20;99.90;;;;;;5062482;28;19916;-81
2022/08/21 00:43:49;;;;;;;;;;;19.10;99.90;;;;;;5057242;28;19928;-82
2022/08/21 00:46:15;;;;;;;;;;;19.20;99.90;;;;;;5064456;28;19916;-84
2022/08/21 00:48:40;;;;;;;;;;;19.20;99.90;;;;;;5063525;28;20001;-85
2022/08/21 00:51:09;;;;;;;;;;;19.10;99.90;;;;;;5064046;28;19924;-85
2022/08/21 00:53:36;;;;;;;;;;;19.10;99.90;;;;;;5062943;28;19956;-85
2022/08/21 00:56:04;;;;;;;;;;;19.00;99.90;;;;;;5069326;28;19912;-84
2022/08/21 00:58:31;;;;;;;;;;;19.00;99.90;;;;;;5060586;28;19918;-83
2022/08/21 01:00:57;;;;;;;;;;;18.90;99.90;;;;;;5064406;28;19958;-83
2022/08/21 01:03:24;;;;;;;;;;;19.00;99.90;;;;;;5063268;28;19982;-84
2022/08/21 01:05:51;;;;;;;;;;;18.80;99.90;;;;;;5060977;28;20402;-83
2022/08/21 01:08:17;;;;;;;;;;;18.80;99.90;;;;;;5061694;28;20296;-82
2022/08/21 01:10:43;;;;;;;;;;;18.80;99.90;;;;;;5069971;28;20655;-82
2022/08/21 01:13:11;;;;;;;;;;;18.80;99.90;;;;;;5061872;28;19913;-84
2022/08/21 01:15:38;;;;;;;;;;;18.70;99.90;;;;;;5064369;28;20353;-83
2022/08/21 01:18:04;;;;;;;;;;;18.60;99.90;;;;;;5062433;28;19920;-83
2022/08/21 01:20:30;;;;;;;;;;;18.60;99.90;;;;;;5093268;28;19916;-82
2022/08/21 01:22:56;;;;;;;;;;;18.50;99.90;;;;;;5059606;28;19987;-83
2022/08/21 01:25:22;;;;;;;;;;;18.90;99.90;;;;;;5062893;28;19916;-82
2022/08/21 01:27:48;;;;;;;;;;;18.80;99.90;;;;;;5063910;28;19916;-83
2022/08/21 01:30:15;;;;;;;;;;;18.80;99.90;;;;;;5062970;28;19920;-83
2022/08/21 01:32:41;;;;;;;;;;;18.80;99.90;;;;;;5060982;28;19925;-84
2022/08/21 01:35:07;;;;;;;;;;;18.80;99.90;;;;;;5063753;28;19923;-84
2022/08/21 01:37:32;;;;;;;;;;;18.70;99.90;;;;;;5062202;28;19913;-83
2022/08/21 01:39:58;;;;;;;;;;;18.60;99.90;;;;;;5063880;28;19913;-83
2022/08/21 01:42:24;;;;;;;;;;;18.70;99.90;;;;;;5063053;28;20833;-83
2022/08/21 01:44:49;;;;;;;;;;;18.70;99.90;;;;;;5063275;28;19916;-83
2022/08/21 01:47:15;;;;;;;;;;;18.60;99.90;;;;;;5062996;28;19917;-83
2022/08/21 01:49:41;;;;;;;;;;;18.60;99.90;;;;;;5063628;28;19924;-81
2022/08/21 01:52:08;;;;;;;;;;;18.50;99.90;;;;;;5059894;28;19931;-83
2022/08/21 01:54:33;;;;;;;;;;;18.50;99.90;;;;;;5062544;28;19935;-78
2022/08/21 01:56:59;;;;;;;;;;;18.30;99.90;;;;;;5060725;28;20380;-77
2022/08/21 01:59:25;;;;;;;;;;;18.20;99.90;;;;;;5062957;28;19924;-77
2022/08/21 02:01:53;;;;;;;;;;;18.10;99.90;;;;;;5062141;28;19916;-77
2022/08/21 02:04:19;;;;;;;;;;;18.20;99.90;;;;;;5056853;28;19923;-78
2022/08/21 02:06:45;;;;;;;;;;;18.20;99.90;;;;;;5063382;28;20315;-77
2022/08/21 02:09:11;;;;;;;;;;;18.20;99.90;;;;;;5062471;28;19924;-79
2022/08/21 02:11:39;;;;;;;;;;;18.30;99.90;;;;;;5069134;28;19924;-78
2022/08/21 02:14:09;;;;;;;;;;;18.20;99.90;;;;;;5064758;28;20391;-78
2022/08/21 02:16:34;;;;;;;;;;;18.20;99.90;;;;;;5062843;28;19970;-77
2022/08/21 02:19:00;;;;;;;;;;;18.20;99.90;;;;;;5058641;28;20003;-78
2022/08/21 02:21:25;;;;;;;;;;;18.20;99.90;;;;;;5060787;28;20654;-78
2022/08/21 02:23:51;;;;;;;;;;;18.20;99.90;;;;;;5062389;28;19986;-79
2022/08/21 02:26:17;;;;;;;;;;;18.20;99.90;;;;;;5062395;28;20393;-78
2022/08/21 02:28:43;;;;;;;;;;;18.10;99.90;;;;;;5062019;28;20308;-78
2022/08/21 02:31:08;;;;;;;;;;;18.10;99.90;;;;;;5062434;28;19993;-80
2022/08/21 02:33:34;;;;;;;;;;;18.00;99.90;;;;;;5062047;28;19928;-79
2022/08/21 02:36:00;;;;;;;;;;;17.90;99.90;;;;;;5061283;28;19920;-77
2022/08/21 02:38:29;;;;;;;;;;;17.90;99.90;;;;;;5061151;28;19916;-77
2022/08/21 02:40:55;;;;;;;;;;;17.80;99.90;;;;;;5062230;28;19921;-77
2022/08/21 02:43:21;;;;;;;;;;;17.80;99.90;;;;;;5062442;28;19917;-78
2022/08/21 02:45:47;;;;;;;;;;;17.80;99.90;;;;;;5060859;28;19920;-78
2022/08/21 02:48:15;;;;;;;;;;;17.80;99.90;;;;;;5061252;28;20414;-77
2022/08/21 02:50:42;;;;;;;;;;;17.70;99.90;;;;;;5062868;28;20419;-77
2022/08/21 02:53:09;;;;;;;;;;;17.70;99.90;;;;;;5061971;28;19924;-77
2022/08/21 02:55:36;;;;;;;;;;;17.70;99.90;;;;;;5058638;28;19917;-80
2022/08/21 02:58:02;;;;;;;;;;;17.70;99.90;;;;;;5060324;28;20530;-81
2022/08/21 03:00:29;;;;;;;;;;;17.60;99.90;;;;;;5059126;28;20003;-80
2022/08/21 03:02:55;;;;;;;;;;;17.50;99.90;;;;;;5057597;28;20354;-80
2022/08/21 03:05:22;;;;;;;;;;;17.60;99.90;;;;;;5060930;28;20494;-80
2022/08/21 03:07:48;;;;;;;;;;;17.60;99.90;;;;;;5060355;28;19923;-83
2022/08/21 03:10:14;;;;;;;;;;;17.60;99.90;;;;;;5056100;28;19917;-81
2022/08/21 03:12:39;;;;;;;;;;;17.60;99.90;;;;;;5060362;28;19963;-80
2022/08/21 03:15:06;;;;;;;;;;;17.60;99.90;;;;;;5060061;28;19917;-80
2022/08/21 03:17:32;;;;;;;;;;;17.60;99.90;;;;;;5062235;28;20381;-79
2022/08/21 03:19:58;;;;;;;;;;;17.60;99.90;;;;;;5061799;28;19912;-79
2022/08/21 03:22:23;;;;;;;;;;;17.60;99.90;;;;;;5062213;28;20459;-80
2022/08/21 03:24:49;;;;;;;;;;;17.60;99.90;;;;;;5062137;28;20446;-81
2022/08/21 03:27:15;;;;;;;;;;;17.50;99.90;;;;;;5060673;28;19917;-80
2022/08/21 03:29:40;;;;;;;;;;;17.50;99.90;;;;;;5059631;28;20302;-82
2022/08/21 03:32:09;;;;;;;;;;;17.40;99.90;;;;;;5061771;28;19924;-81
2022/08/21 03:34:35;;;;;;;;;;;17.40;99.90;;;;;;5061374;28;19917;-81
2022/08/21 03:37:00;;;;;;;;;;;17.30;99.90;;;;;;5061818;28;19916;-80
2022/08/21 03:39:26;;;;;;;;;;;17.30;99.90;;;;;;5063772;28;20398;-80
2022/08/21 03:41:52;;;;;;;;;;;17.30;99.90;;;;;;5060880;28;20033;-80
2022/08/21 03:44:18;;;;;;;;;;;17.20;99.90;;;;;;5059827;28;19916;-80
2022/08/21 03:46:43;;;;;;;;;;;17.20;99.90;;;;;;5058521;28;19920;-80
2022/08/21 03:49:09;;;;;;;;;;;17.10;99.90;;;;;;5060720;28;19956;-81
2022/08/21 03:51:35;;;;;;;;;;;17.10;99.90;;;;;;5059375;28;19928;-79
2022/08/21 03:54:01;;;;;;;;;;;17.10;99.90;;;;;;5063076;28;20439;-80
2022/08/21 03:56:26;;;;;;;;;;;17.00;99.90;;;;;;5063334;28;20306;-79
2022/08/21 03:58:52;;;;;;;;;;;17.00;99.90;;;;;;5065005;28;20643;-80
2022/08/21 04:01:17;;;;;;;;;;;17.00;99.90;;;;;;5065397;28;19925;-80
2022/08/21 04:03:43;;;;;;;;;;;16.90;99.90;;;;;;5065257;28;19951;-79
2022/08/21 04:06:08;;;;;;;;;;;16.80;99.90;;;;;;5062813;28;20536;-79
2022/08/21 04:08:34;;;;;;;;;;;16.70;99.90;;;;;;5066027;28;19963;-79
2022/08/21 04:11:00;;;;;;;;;;;16.70;99.90;;;;;;5065152;28;19986;-79
2022/08/21 04:13:27;;;;;;;;;;;16.60;99.90;;;;;;5064192;28;19920;-80
2022/08/21 04:15:53;;;;;;;;;;;16.60;99.90;;;;;;5064161;28;19955;-80
2022/08/21 04:18:19;;;;;;;;;;;16.50;99.90;;;;;;5064031;28;19974;-80
2022/08/21 04:20:46;;;;;;;;;;;16.50;99.90;;;;;;5064419;28;20311;-82
2022/08/21 04:23:11;;;;;;;;;;;16.40;99.90;;;;;;5063976;28;20009;-83
2022/08/21 04:25:37;;;;;;;;;;;16.50;99.90;;;;;;5064738;28;20451;-81
2022/08/21 04:28:03;;;;;;;;;;;16.40;99.90;;;;;;5064160;28;20393;-81
2022/08/21 04:30:28;;;;;;;;;;;16.40;99.90;;;;;;5064381;28;19913;-81
2022/08/21 04:32:55;;;;;;;;;;;16.30;99.90;;;;;;5063673;28;20114;-82
2022/08/21 04:35:22;;;;;;;;;;;16.30;99.90;;;;;;5064425;28;20936;-82
2022/08/21 04:37:48;;;;;;;;;;;16.20;99.90;;;;;;5063943;28;19923;-82
2022/08/21 04:40:15;;;;;;;;;;;16.20;99.90;;;;;;5061894;28;19924;-81
2022/08/21 04:42:44;;;;;;;;;;;16.30;99.90;;;;;;5064549;28;19916;-81
2022/08/21 04:45:21;;;;;;;;;;;16.30;99.90;;;;;;5063538;28;19969;-81
2022/08/21 04:47:51;;;;;;;;;;;16.40;99.90;;;;;;5063366;28;19925;-81
2022/08/21 04:50:16;;;;;;;;;;;16.40;99.90;;;;;;5063202;28;19916;-81
2022/08/21 04:52:42;;;;;;;;;;;16.30;99.90;;;;;;5062624;28;19990;-81
2022/08/21 04:55:08;;;;;;;;;;;16.20;99.90;;;;;;5063018;28;19920;-79
2022/08/21 04:57:34;;;;;;;;;;;16.20;99.90;;;;;;5064243;28;19997;-80
2022/08/21 05:00:00;;;;;;;;;;;16.10;99.90;;;;;;5063266;28;19916;-80
2022/08/21 05:02:26;;;;;;;;;;;16.10;99.90;;;;;;5063149;28;19935;-78
2022/08/21 05:04:53;;;;;;;;;;;16.10;99.90;;;;;;5064076;28;20395;-78
2022/08/21 05:07:20;;;;;;;;;;;16.10;99.90;;;;;;5062810;28;19924;-80
2022/08/21 05:09:46;;;;;;;;;;;16.10;99.90;;;;;;5063804;28;19924;-80
2022/08/21 05:12:12;;;;;;;;;;;16.10;99.90;;;;;;5063057;28;19931;-80
2022/08/21 05:14:37;;;;;;;;;;;16.20;99.90;;;;;;5062356;28;19923;-81
2022/08/21 05:17:04;;;;;;;;;;;16.50;99.90;;;;;;5064399;28;19913;-80
2022/08/21 05:19:29;;;;;;;;;;;17.20;99.90;;;;;;5063245;28;19917;-80
2022/08/21 05:21:55;;;;;;;;;;;18.00;99.90;;;;;;5064271;28;20303;-80
2022/08/21 05:24:20;;;;;;;;;;;18.50;99.90;;;;;;5058176;28;19920;-79
2022/08/21 05:26:46;;;;;;;;;;;18.90;99.90;;;;;;5063904;28;20005;-80
2022/08/21 05:29:12;;;;;;;;;;;19.50;99.90;;;;;;5061746;28;19970;-81
2022/08/21 05:31:38;;;;;;;;;;;19.80;99.90;;;;;;5073877;28;19924;-81
2022/08/21 05:34:05;;;;;;;;;;;20.10;99.90;;;;;;5062926;28;19921;-82
2022/08/21 05:36:31;;;;;;;;;;;20.30;99.90;;;;;;5064155;28;20011;-82
2022/08/21 05:38:56;;;;;;;;;;;20.50;99.90;;;;;;5063611;28;20046;-84
2022/08/21 05:41:22;;;;;;;;;;;20.60;99.90;;;;;;5060859;28;19916;-83
2022/08/21 05:43:47;;;;;;;;;;;21.00;99.90;;;;;;5063505;28;19920;-82
2022/08/21 05:46:13;;;;;;;;;;;21.10;99.90;;;;;;5060968;28;20401;-81
2022/08/21 05:48:39;;;;;;;;;;;21.00;99.90;;;;;;5061769;28;19924;-81
2022/08/21 05:51:08;;;;;;;;;;;21.10;99.90;;;;;;5062339;28;19927;-80
2022/08/21 05:53:35;;;;;;;;;;;21.70;99.90;;;;;;5062405;28;19916;-81
2022/08/21 05:56:03;;;;;;;;;;;21.60;99.90;;;;;;5063440;28;20281;-81
2022/08/21 05:58:29;;;;;;;;;;;20.30;99.90;;;;;;5062054;28;19959;-81
2022/08/21 06:00:55;;;;;;;;;;;19.20;99.90;;;;;;5060095;28;19936;-81
2022/08/21 06:03:24;;;;;;;;;;;18.50;99.90;;;;;;5062320;28;19916;-82
2022/08/21 06:05:50;;;;;;;;;;;18.10;99.90;;;;;;5063436;28;20011;-81
2022/08/21 06:08:18;;;;;;;;;;;17.70;99.90;;;;;;5061822;28;19923;-82
2022/08/21 06:10:44;;;;;;;;;;;17.50;99.90;;;;;;5058239;28;20393;-80
2022/08/21 06:13:10;;;;;;;;;;;17.50;99.90;;;;;;5062838;28;20003;-83
2022/08/21 06:15:35;;;;;;;;;;;18.60;99.90;;;;;;5061366;28;20045;-85
2022/08/21 06:18:01;;;;;;;;;;;20.50;99.90;;;;;;5061497;28;19916;-83
2022/08/21 06:20:27;;;;;;;;;;;18.90;99.90;;;;;;5061230;28;19939;-81
2022/08/21 06:22:52;;;;;;;;;;;17.90;99.90;;;;;;5062322;28;19938;-80
2022/08/21 06:25:19;;;;;;;;;;;19.50;99.90;;;;;;5059635;28;20035;-81
2022/08/21 06:27:44;;;;;;;;;;;19.00;99.90;;;;;;5059455;28;19920;-81
2022/08/21 06:30:10;;;;;;;;;;;19.00;99.90;;;;;;5060314;28;19994;-81
2022/08/21 06:32:36;;;;;;;;;;;19.90;99.90;;;;;;5057174;28;19931;-82
2022/08/21 06:35:02;;;;;;;;;;;20.40;99.90;;;;;;5057018;28;19920;-81
2022/08/21 06:37:27;;;;;;;;;;;20.70;99.90;;;;;;5056372;28;19917;-82
2022/08/21 06:39:53;;;;;;;;;;;20.30;99.90;;;;;;5058038;28;19923;-82
2022/08/21 06:42:18;;;;;;;;;;;20.50;99.90;;;;;;5052658;28;19917;-83
2022/08/21 06:44:44;;;;;;;;;;;21.20;99.90;;;;;;5046609;28;19921;-82
2022/08/21 06:47:10;;;;;;;;;;;20.50;99.90;;;;;;5052951;28;19920;-84
2022/08/21 06:49:36;;;;;;;;;;;20.20;99.90;;;;;;5043968;28;19925;-84
2022/08/21 06:52:02;;;;;;;;;;;21.30;99.90;;;;;;5045034;28;19936;-84
2022/08/21 06:54:28;;;;;;;;;;;21.50;99.90;;;;;;5044343;28;19944;-84
2022/08/21 06:56:53;;;;;;;;;;;21.50;99.90;;;;;;5043770;28;20387;-84
2022/08/21 06:59:19;;;;;;;;;;;22.60;99.90;;;;;;5046376;28;19924;-85
2022/08/21 07:01:44;;;;;;;;;;;24.60;99.90;;;;;;5085809;28;20577;-83
2022/08/21 07:04:10;;;;;;;;;;;24.20;99.90;;;;;;5061303;28;19999;-86
2022/08/21 07:06:36;;;;;;;;;;;23.40;99.90;;;;;;5064873;28;19912;-91
2022/08/21 07:09:02;;;;;;;;;;;23.20;99.90;;;;;;5064509;28;20371;-84
2022/08/21 07:11:28;;;;;;;;;;;23.90;99.90;;;;;;5061898;28;19931;-85
2022/08/21 07:13:56;;;;;;;;;;;24.40;99.90;;;;;;5062814;28;19920;-86
2022/08/21 07:16:22;;;;;;;;;;;23.70;99.90;;;;;;5062465;28;19923;-86
2022/08/21 07:18:48;;;;;;;;;;;23.90;99.90;;;;;;5061827;28;19924;-86
2022/08/21 07:21:14;;;;;;;;;;;23.40;99.90;;;;;;5063674;28;19982;-83
2022/08/21 07:23:41;;;;;;;;;;;25.50;98.00;;;;;;5062416;28;20027;-87
2022/08/21 07:26:07;;;;;;;;;;;27.00;95.50;;;;;;5063921;28;19942;-85
2022/08/21 07:28:33;;;;;;;;;;;26.80;93.10;;;;;;5063063;28;19916;-86
2022/08/21 07:30:59;;;;;;;;;;;24.80;96.70;;;;;;5064329;28;19943;-86
2022/08/21 07:33:26;;;;;;;;;;;23.60;99.30;;;;;;5066236;28;19917;-85
2022/08/21 07:35:52;;;;;;;;;;;22.40;99.90;;;;;;5068118;28;19912;-86
2022/08/21 07:38:18;;;;;;;;;;;22.30;99.90;;;;;;5067477;28;19912;-85
2022/08/21 07:40:45;;;;;;;;;;;25.20;98.10;;;;;;5067970;28;20435;-85
2022/08/21 07:43:11;;;;;;;;;;;24.80;97.40;;;;;;5066951;28;19917;-85
2022/08/21 07:45:37;;;;;;;;;;;25.40;98.50;;;;;;5067262;28;19925;-85
2022/08/21 07:48:03;;;;;;;;;;;25.40;95.30;;;;;;5063921;28;19924;-86
2022/08/21 07:50:28;;;;;;;;;;;26.10;95.00;;;;;;5064496;28;20688;-85
2022/08/21 07:52:54;;;;;;;;;;;26.30;94.10;;;;;;5062653;28;19995;-86
2022/08/21 07:55:20;;;;;;;;;;;27.70;92.30;;;;;;5067189;28;19947;-81
2022/08/21 07:57:46;;;;;;;;;;;27.30;92.20;;;;;;5066981;28;20011;-80
2022/08/21 08:00:13;;;;;;;;;;;26.10;93.20;;;;;;5066354;28;20031;-81
2022/08/21 08:02:40;;;;;;;;;;;26.30;92.30;;;;;;5071050;28;19913;-81
2022/08/21 08:05:07;;;;;;;;;;;25.90;92.20;;;;;;5066809;28;19955;-81
2022/08/21 08:07:33;;;;;;;;;;;25.20;93.00;;;;;;5065815;28;20362;-81
2022/08/21 08:09:58;;;;;;;;;;;25.80;92.80;;;;;;5065520;28;20597;-81
2022/08/21 08:12:28;;;;;;;;;;;26.90;91.20;;;;;;5065089;28;19968;-81
2022/08/21 08:14:57;;;;;;;;;;;25.20;92.20;;;;;;5066831;28;19925;-81
2022/08/21 08:17:23;;;;;;;;;;;24.60;94.10;;;;;;5065456;28;19923;-81
2022/08/21 08:19:49;;;;;;;;;;;24.90;93.90;;;;;;5066961;28;19912;-81
2022/08/21 08:22:16;;;;;;;;;;;26.10;92.00;;;;;;5066331;28;19920;-81
2022/08/21 08:24:42;;;;;;;;;;;27.00;90.90;;;;;;5070510;28;20033;-83
2022/08/21 08:27:07;;;;;;;;;;;26.00;91.40;;;;;;5066433;28;19969;-82
2022/08/21 08:29:33;;;;;;;;;;;25.70;92.10;;;;;;5066515;28;19920;-84
2022/08/21 08:31:59;;;;;;;;;;;26.00;91.70;;;;;;5066137;28;19925;-82
2022/08/21 08:34:24;;;;;;;;;;;25.80;92.20;;;;;;5066065;28;19916;-80
2022/08/21 08:36:50;;;;;;;;;;;25.90;92.20;;;;;;5066173;28;20002;-79
2022/08/21 08:39:15;;;;;;;;;;;26.60;90.50;;;;;;5066613;28;19918;-80
2022/08/21 08:41:43;;;;;;;;;;;26.80;89.40;;;;;;5066416;28;19946;-79
2022/08/21 08:44:08;;;;;;;;;;;26.60;90.50;;;;;;5066058;28;20848;-79
2022/08/21 08:46:37;;;;;;;;;;;26.50;89.50;;;;;;5066504;28;20489;-79
2022/08/21 08:49:08;;;;;;;;;;;26.20;90.10;;;;;;5065379;28;19967;-80
2022/08/21 08:51:54;;;;;;;;;;;26.60;89.90;;;;;;5065835;28;19920;-80
2022/08/21 08:54:40;;;;;;;;;;;26.90;87.60;;;;;;5062618;28;19919;-88
2022/08/21 08:57:08;;;;;;;;;;;27.80;86.00;;;;;;5066434;28;19951;-89
2022/08/21 08:59:42;;;;;;;;;;;28.40;85.30;;;;;;5067762;28;19989;-90
2022/08/21 09:02:09;;;;;;;;;;;30.00;80.30;;;;;;5066165;28;19971;-88
2022/08/21 09:04:35;;;;;;;;;;;29.80;79.30;;;;;;5065777;28;19917;-83
2022/08/21 09:07:23;;;;;;;;;;;32.30;77.60;;;;;;5064134;28;19917;-83
2022/08/21 09:09:52;;;;;;;;;;;33.00;73.00;;;;;;5065256;28;19922;-83
2022/08/21 09:12:36;;;;;;;;;;;33.10;71.80;;;;;;5065044;28;19924;-82
2022/08/21 09:15:06;;;;;;;;;;;32.20;69.60;;;;;;5063903;28;19916;-83
2022/08/21 09:17:39;;;;;;;;;;;32.70;68.80;;;;;;5065466;28;19917;-81
2022/08/21 09:20:20;;;;;;;;;;;32.80;68.00;;;;;;5067335;28;19920;-83
2022/08/21 09:23:00;;;;;;;;;;;31.20;68.10;;;;;;5062081;28;20540;-85
2022/08/21 09:25:27;;;;;;;;;;;29.80;71.30;;;;;;5056653;28;19948;-83
2022/08/21 09:27:54;;;;;;;;;;;29.20;71.80;;;;;;5064537;28;19916;-84
2022/08/21 09:30:26;;;;;;;;;;;29.10;72.40;;;;;;5062483;28;19924;-84
2022/08/21 09:32:52;;;;;;;;;;;30.40;72.10;;;;;;5058547;28;20022;-83
2022/08/21 09:35:22;;;;;;;;;;;32.80;67.70;;;;;;5052526;28;19999;-85
2022/08/21 09:37:51;;;;;;;;;;;32.80;63.90;;;;;;5059101;28;20015;-83
2022/08/21 09:40:20;;;;;;;;;;;32.40;62.90;;;;;;5056011;28;19920;-84
2022/08/21 09:42:53;;;;;;;;;;;31.30;70.10;;;;;;5056422;28;19923;-82
2022/08/21 09:45:19;;;;;;;;;;;31.40;67.60;;;;;;5057839;28;20019;-85
2022/08/21 09:47:45;;;;;;;;;;;29.80;68.90;;;;;;5057834;28;20012;-83
2022/08/21 09:50:21;;;;;;;;;;;29.40;71.30;;;;;;5056931;28;19922;-80
2022/08/21 09:52:54;;;;;;;;;;;29.00;71.20;;;;;;5060463;28;19923;-80
2022/08/21 09:58:14;;;;;;;;;;;31.00;72.50;;;;;;5054249;28;19962;-81
2022/08/21 10:00:41;;;;;;;;;;;32.40;69.70;;;;;;5056787;28;19919;-81
2022/08/21 10:03:15;;;;;;;;;;;32.60;69.10;;;;;;5047990;28;20008;-81
2022/08/21 10:05:50;;;;;;;;;;;30.60;71.10;;;;;;5058595;28;19916;-81
2022/08/21 10:08:20;;;;;;;;;;;30.70;70.60;;;;;;5062884;28;20314;-82
2022/08/21 10:10:50;;;;;;;;;;;30.30;73.00;;;;;;5060297;28;19916;-80
2022/08/21 10:13:20;;;;;;;;;;;29.70;70.90;;;;;;5055869;28;19934;-81
2022/08/21 10:15:50;;;;;;;;;;;28.90;72.90;;;;;;5047728;28;19917;-81
2022/08/21 10:18:48;;;;;;;;;;;28.60;73.30;;;;;;5044455;28;19923;-81
2022/08/21 10:21:22;;;;;;;;;;;28.60;75.30;;;;;;5015133;28;19909;-81
2022/08/21 10:24:05;;;;;;;;;;;29.20;75.30;;;;;;5018300;28;20039;-81
2022/08/21 10:26:49;;;;;;;;;;;29.20;75.60;;;;;;5016105;28;20815;-81
2022/08/21 10:29:24;;;;;;;;;;;29.50;75.20;;;;;;5010406;28;19918;-81
2022/08/21 10:31:53;;;;;;;;;;;29.30;74.40;;;;;;4999643;28;19979;-81
2022/08/21 10:34:21;;;;;;;;;;;29.30;74.30;;;;;;5010026;28;19914;-81
2022/08/21 10:37:05;;;;;;;;;;;28.90;76.20;;;;;;5016053;28;19913;-81
2022/08/21 10:39:35;;;;;;;;;;;29.00;77.10;;;;;;5016559;28;20522;-81
2022/08/21 10:42:19;;;;;;;;;;;30.10;76.70;;;;;;5015794;28;19925;-81
2022/08/21 10:44:57;;;;;;;;;;;29.30;74.50;;;;;;5011728;28;19921;-81
2022/08/21 10:47:30;;;;;;;;;;;28.80;75.50;;;;;;5014985;28;19913;-81
2022/08/21 10:49:58;;;;;;;;;;;28.80;75.50;;;;;;5013008;28;19933;-82
2022/08/21 10:53:02;;;;;;;;;;;29.90;75.70;;;;;;5015115;28;19929;-82
2022/08/21 10:55:32;;;;;;;;;;;30.20;72.90;;;;;;4969050;28;19920;-82
2022/08/21 10:58:00;;;;;;;;;;;29.90;70.50;;;;;;4982293;28;20020;-82
2022/08/21 11:00:41;;;;;;;;;;;29.80;72.30;;;;;;4984842;28;19921;-82
2022/08/21 11:03:20;;;;;;;;;;;29.90;71.30;;;;;;4991766;28;19914;-82
2022/08/21 11:05:47;;;;;;;;;;;29.10;73.30;;;;;;5000487;28;19988;-82
2022/08/21 11:08:22;;;;;;;;;;;29.60;75.10;;;;;;5001601;28;19920;-81
2022/08/21 11:10:52;;;;;;;;;;;29.80;72.50;;;;;;5001405;28;19913;-82
2022/08/21 11:13:22;;;;;;;;;;;29.00;72.50;;;;;;5000941;28;19996;-82
2022/08/21 11:15:54;;;;;;;;;;;28.90;73.40;;;;;;5001233;28;19914;-82
2022/08/21 11:18:33;;;;;;;;;;;29.40;74.20;;;;;;5001441;28;20016;-82
2022/08/21 11:20:59;;;;;;;;;;;29.10;70.80;;;;;;5000810;28;20685;-82
2022/08/21 11:23:39;;;;;;;;;;;29.40;71.00;;;;;;4981600;28;20496;-82
2022/08/21 11:26:11;;;;;;;;;;;29.30;71.00;;;;;;5045071;28;19920;-82
2022/08/21 11:29:00;;;;;;;;;;;29.20;72.60;;;;;;5063564;28;19917;-82
2022/08/21 11:31:50;;;;;;;;;;;29.40;69.20;;;;;;5063624;28;19943;-82
2022/08/21 11:34:28;;;;;;;;;;;29.10;70.30;;;;;;5062090;28;19920;-82
2022/08/21 11:37:12;;;;;;;;;;;28.80;69.30;;;;;;5050597;28;19913;-82
2022/08/21 11:39:40;;;;;;;;;;;29.50;68.90;;;;;;5063362;28;19994;-82
2022/08/21 11:42:12;;;;;;;;;;;29.70;69.50;;;;;;5062024;28;19912;-82
2022/08/21 11:44:44;;;;;;;;;;;29.60;71.00;;;;;;5063461;28;19920;-82
2022/08/21 11:47:17;;;;;;;;;;;29.60;70.20;;;;;;5063595;28;20407;-82
2022/08/21 11:50:03;;;;;;;;;;;29.30;69.80;;;;;;5063170;28;20426;-82
2022/08/21 11:52:28;;;;;;;;;;;29.30;67.50;;;;;;5063137;28;19920;-82
2022/08/21 11:54:59;;;;;;;;;;;28.10;68.20;;;;;;5063785;28;19919;-76
2022/08/21 11:57:29;;;;;;;;;;;28.50;70.30;;;;;;5063386;28;19932;-76
2022/08/21 11:59:54;;;;;;;;;;;28.60;70.40;;;;;;5063573;28;20194;-76
2022/08/21 12:02:22;;;;;;;;;;;29.00;69.50;;;;;;5062591;28;19920;-76
2022/08/21 12:04:51;;;;;;;;;;;29.00;67.20;;;;;;5063265;28;19959;-76
2022/08/21 12:07:37;;;;;;;;;;;29.40;69.20;;;;;;5063560;28;19909;-77
2022/08/21 12:10:05;;;;;;;;;;;29.10;67.60;;;;;;5058982;28;20353;-76
2022/08/21 12:12:32;;;;;;;;;;;28.80;69.10;;;;;;5061534;28;20289;-77
2022/08/21 12:15:16;;;;;;;;;;;29.10;68.60;;;;;;5062029;28;20489;-77
2022/08/21 12:17:51;;;;;;;;;;;29.40;69.30;;;;;;5064657;28;19995;-77
2022/08/21 12:20:22;;;;;;;;;;;29.10;70.30;;;;;;5056033;28;19912;-77
2022/08/21 12:23:03;;;;;;;;;;;29.10;69.20;;;;;;5062662;28;19912;-76
2022/08/21 12:25:42;;;;;;;;;;;29.10;70.30;;;;;;5066731;28;19927;-77
2022/08/21 12:28:10;;;;;;;;;;;28.80;68.10;;;;;;5066407;28;19912;-76
2022/08/21 12:30:38;;;;;;;;;;;29.10;69.60;;;;;;5067077;28;19912;-77
2022/08/21 12:33:04;;;;;;;;;;;29.30;67.80;;;;;;5065064;28;19921;-76
2022/08/21 12:35:37;;;;;;;;;;;28.70;67.40;;;;;;5066722;28;19913;-77
2022/08/21 12:38:21;;;;;;;;;;;28.60;68.40;;;;;;5066494;28;19916;-76
2022/08/21 12:40:56;;;;;;;;;;;28.70;68.70;;;;;;5066756;28;19913;-76
2022/08/21 12:43:26;;;;;;;;;;;28.80;68.20;;;;;;5066523;28;19912;-77
2022/08/21 12:45:52;;;;;;;;;;;29.00;69.10;;;;;;5066553;28;19912;-77
2022/08/21 12:48:20;;;;;;;;;;;28.70;68.00;;;;;;5061035;28;19924;-76
2022/08/21 12:50:52;;;;;;;;;;;28.40;67.50;;;;;;5056063;28;20426;-76
2022/08/21 12:53:21;;;;;;;;;;;28.20;67.70;;;;;;5098428;28;19920;-76
2022/08/21 12:55:47;;;;;;;;;;;28.20;68.30;;;;;;5066553;28;20004;-77
2022/08/21 12:58:19;;;;;;;;;;;28.60;70.00;;;;;;5066178;28;19997;-76
2022/08/21 13:00:57;;;;;;;;;;;28.40;69.40;;;;;;5066546;28;19916;-76
2022/08/21 13:03:23;;;;;;;;;;;28.30;70.90;;;;;;5065004;28;19982;-77
2022/08/21 13:05:51;;;;;;;;;;;28.10;70.20;;;;;;5065988;28;19912;-76
2022/08/21 13:08:19;;;;;;;;;;;27.90;70.10;;;;;;5065857;28;19912;-76
2022/08/21 13:10:46;;;;;;;;;;;28.10;71.20;;;;;;5066161;28;19923;-77
2022/08/21 13:13:20;;;;;;;;;;;29.10;69.90;;;;;;5066269;28;19920;-77
2022/08/21 13:15:45;;;;;;;;;;;29.30;69.20;;;;;;5065562;28;19912;-77
2022/08/21 13:18:19;;;;;;;;;;;29.20;70.70;;;;;;5065364;28;19913;-76
2022/08/21 13:20:45;;;;;;;;;;;28.50;71.40;;;;;;5065737;28;19920;-76
2022/08/21 13:23:23;;;;;;;;;;;28.00;72.70;;;;;;5065511;28;20415;-76
2022/08/21 13:25:49;;;;;;;;;;;28.10;72.80;;;;;;5059873;28;19927;-77
2022/08/21 13:28:15;;;;;;;;;;;28.40;73.90;;;;;;5064632;28;19940;-76
2022/08/21 13:30:45;;;;;;;;;;;28.60;73.00;;;;;;5065582;28;20474;-76
2022/08/21 13:33:13;;;;;;;;;;;28.60;72.20;;;;;;5065449;28;19927;-77
2022/08/21 13:35:50;;;;;;;;;;;28.60;72.70;;;;;;5065432;28;19915;-76
2022/08/21 13:38:16;;;;;;;;;;;28.40;72.70;;;;;;5065094;28;19920;-76
2022/08/21 13:40:46;;;;;;;;;;;28.30;72.50;;;;;;5065258;28;19939;-76
2022/08/21 13:43:16;;;;;;;;;;;28.10;73.70;;;;;;5065070;28;20486;-76
2022/08/21 13:45:44;;;;;;;;;;;28.00;76.20;;;;;;5064804;28;19912;-76
2022/08/21 13:48:10;;;;;;;;;;;27.80;76.30;;;;;;5064432;28;19928;-77
2022/08/21 13:50:37;;;;;;;;;;;27.80;75.50;;;;;;5065296;28;19912;-76
2022/08/21 13:53:04;;;;;;;;;;;27.50;74.40;;;;;;5065117;28;19955;-76
2022/08/21 13:55:39;;;;;;;;;;;27.50;73.60;;;;;;5065518;28;19912;-77
2022/08/21 13:58:04;;;;;;;;;;;27.40;73.80;;;;;;5064917;28;19913;-76
2022/08/21 14:00:34;;;;;;;;;;;27.70;74.00;;;;;;5064977;28;19918;-76
2022/08/21 14:03:09;;;;;;;;;;;27.90;74.70;;;;;;5063471;28;20456;-76
2022/08/21 14:05:36;;;;;;;;;;;28.40;74.50;;;;;;5065225;28;20338;-76
2022/08/21 14:08:07;;;;;;;;;;;28.20;74.00;;;;;;5065139;28;19916;-76
2022/08/21 14:10:35;;;;;;;;;;;28.40;74.10;;;;;;5065306;28;19912;-77
2022/08/21 14:13:01;;;;;;;;;;;28.20;74.30;;;;;;5065157;28;20017;-76
2022/08/21 14:15:29;;;;;;;;;;;28.20;74.70;;;;;;5064735;28;20521;-76
2022/08/21 14:18:06;;;;;;;;;;;28.40;74.70;;;;;;5065028;28;19912;-76
2022/08/21 14:20:33;;;;;;;;;;;28.60;74.20;;;;;;5065414;28;19955;-77
2022/08/21 14:22:59;;;;;;;;;;;28.70;72.70;;;;;;5063575;28;19973;-77
2022/08/21 14:25:24;;;;;;;;;;;28.60;73.00;;;;;;5065093;28;20451;-76